Time;durP1;ratioP1;P1;durP2;ratioP2;P2;SDS_P1;SDS_P2;PMS_P1;PMS_P2;Temp;Humidity;BMP_temperature;BMP_pressure;BME280_temperature;BME280_humidity;BME280_pressure;Samples;Min_cycle;Max_cycle;Signal;HPM_P1;HPM_P2
2021/05/09 00:01:26;;;;;;;4.25;2.60;;;;;;;6.46;76.02;95353.59;5036750;28;20183;-67
2021/05/09 00:03:53;;;;;;;3.63;2.50;;;;;;;6.37;76.31;95359.25;5048065;28;20048;-67
2021/05/09 00:06:19;;;;;;;4.30;2.70;;;;;;;6.20;77.19;95355.94;5031610;28;20037;-67
2021/05/09 00:08:45;;;;;;;4.93;2.53;;;;;;;6.22;76.97;95346.00;5032715;28;20077;-67
2021/05/09 00:11:11;;;;;;;4.28;2.40;;;;;;;6.17;77.13;95353.81;5049891;28;20044;-67
2021/05/09 00:13:37;;;;;;;4.05;2.47;;;;;;;6.07;77.63;95350.03;5045482;28;20041;-67
2021/05/09 00:16:03;;;;;;;3.65;2.50;;;;;;;6.06;77.90;95348.47;5043607;28;20700;-66
2021/05/09 00:18:28;;;;;;;3.60;2.45;;;;;;;6.04;77.44;95340.09;5039253;28;20048;-67
2021/05/09 00:20:57;;;;;;;4.95;2.40;;;;;;;6.01;77.49;95340.56;5049512;28;20563;-67
2021/05/09 00:23:23;;;;;;;3.90;2.30;;;;;;;5.94;78.06;95339.94;5031849;28;20142;-66
2021/05/09 00:25:49;;;;;;;3.97;2.60;;;;;;;5.91;77.40;95329.97;5041986;28;20037;-67
2021/05/09 00:28:15;;;;;;;3.60;2.40;;;;;;;5.88;78.02;95338.31;5037595;28;20099;-67
2021/05/09 00:30:41;;;;;;;4.28;2.50;;;;;;;5.90;78.57;95338.84;5040601;28;20521;-67
2021/05/09 00:33:06;;;;;;;5.53;2.50;;;;;;;5.82;78.44;95341.88;5049704;28;20044;-67
2021/05/09 00:35:31;;;;;;;3.83;2.50;;;;;;;5.78;78.02;95336.38;5046667;28;20602;-66
2021/05/09 00:37:57;;;;;;;3.97;2.50;;;;;;;5.72;78.51;95340.72;5045144;28;20075;-67
2021/05/09 00:40:23;;;;;;;5.07;2.50;;;;;;;5.66;78.64;95333.88;5042122;28;20048;-66
2021/05/09 00:42:48;;;;;;;4.50;2.63;;;;;;;5.59;78.42;95343.69;5043413;28;20060;-66
2021/05/09 00:45:14;;;;;;;5.20;2.50;;;;;;;5.60;79.17;95339.25;5031001;28;20045;-67
2021/05/09 00:47:40;;;;;;;4.28;2.70;;;;;;;5.59;79.11;95343.69;5037607;28;20049;-66
2021/05/09 00:50:06;;;;;;;5.10;2.50;;;;;;;5.55;79.12;95337.38;5038529;28;20056;-66
2021/05/09 00:52:38;;;;;;;3.25;2.17;;;;;;;5.63;78.65;95334.38;5039622;28;20044;-67
2021/05/09 00:55:09;;;;;;;3.72;2.47;;;;;;;5.56;79.04;95328.53;5031991;28;20045;-66
2021/05/09 00:57:36;;;;;;;4.97;2.97;;;;;;;5.46;80.50;95333.59;5041557;28;20033;-66
2021/05/09 01:00:08;;;;;;;3.88;2.40;;;;;;;5.46;80.36;95330.97;5032714;28;20384;-67
2021/05/09 01:02:35;;;;;;;4.18;2.72;;;;;;;5.44;79.88;95330.44;5040187;28;20239;-67
2021/05/09 01:05:02;;;;;;;4.10;2.38;;;;;;;5.40;80.10;95334.56;5041525;28;20093;-67
2021/05/09 01:07:29;;;;;;;4.50;2.60;;;;;;;5.42;79.85;95322.84;5030471;28;20511;-67
2021/05/09 01:09:54;;;;;;;5.10;2.60;;;;;;;5.36;80.30;95319.38;5046434;28;20045;-66
2021/05/09 01:12:20;;;;;;;4.65;2.47;;;;;;;5.37;80.25;95326.19;5041255;28;20557;-69
2021/05/09 01:14:46;;;;;;;4.05;2.67;;;;;;;5.28;80.98;95311.97;5030469;28;20048;-68
2021/05/09 01:17:12;;;;;;;4.70;2.97;;;;;;;5.25;80.83;95322.88;5039971;28;20044;-68
2021/05/09 01:19:40;;;;;;;5.63;2.70;;;;;;;5.22;80.87;95318.16;5050025;28;20045;-67
2021/05/09 01:22:14;;;;;;;4.65;2.55;;;;;;;5.21;81.54;95313.94;5039888;28;20063;-69
2021/05/09 01:24:40;;;;;;;4.43;2.70;;;;;;;5.15;81.07;95312.31;5048882;28;20099;-69
2021/05/09 01:27:07;;;;;;;7.55;2.70;;;;;;;5.13;81.57;95314.34;5036385;28;20053;-69
2021/05/09 01:29:34;;;;;;;4.07;2.53;;;;;;;5.09;81.41;95313.28;5041644;28;20590;-69
2021/05/09 01:32:00;;;;;;;7.00;2.90;;;;;;;5.10;81.40;95320.84;5034712;28;20038;-69
2021/05/09 01:34:33;;;;;;;4.05;2.47;;;;;;;5.02;81.17;95314.22;5034430;28;20049;-69
2021/05/09 01:36:59;;;;;;;4.35;2.65;;;;;;;4.99;81.27;95316.50;5029712;28;20087;-69
2021/05/09 01:39:25;;;;;;;4.47;2.67;;;;;;;5.01;81.37;95311.84;5033857;28;20034;-69
2021/05/09 01:41:51;;;;;;;5.93;2.75;;;;;;;4.96;80.96;95314.38;5047881;28;20053;-69
2021/05/09 01:44:16;;;;;;;3.50;2.35;;;;;;;4.91;81.90;95307.25;5045355;28;20076;-67
2021/05/09 01:46:42;;;;;;;3.60;2.40;;;;;;;4.90;80.68;95305.69;5045535;28;20119;-66
2021/05/09 01:49:07;;;;;;;5.30;2.80;;;;;;;4.85;82.30;95314.22;5047014;28;20045;-67
2021/05/09 01:51:33;;;;;;;4.68;2.60;;;;;;;4.80;82.29;95310.75;5041350;28;20461;-67
2021/05/09 01:53:58;;;;;;;4.10;2.63;;;;;;;4.80;82.09;95315.97;5034661;28;20502;-67
2021/05/09 01:56:24;;;;;;;4.47;2.60;;;;;;;4.74;82.14;95311.69;5033181;28;20149;-67
2021/05/09 01:58:49;;;;;;;7.03;2.75;;;;;;;4.72;81.89;95308.53;5031597;28;20052;-66
2021/05/09 02:01:15;;;;;;;4.70;2.40;;;;;;;4.65;82.26;95309.47;5040001;28;20041;-69
2021/05/09 02:03:41;;;;;;;3.50;2.15;;;;;;;4.57;81.58;95304.66;5046590;28;20037;-69
2021/05/09 02:06:06;;;;;;;4.30;2.50;;;;;;;4.56;82.33;95310.91;5036339;28;20502;-69
2021/05/09 02:08:32;;;;;;;4.15;2.40;;;;;;;4.54;81.95;95307.75;5030363;28;20048;-68
2021/05/09 02:10:57;;;;;;;3.70;2.40;;;;;;;4.55;82.87;95308.53;5038873;28;20140;-68
2021/05/09 02:13:23;;;;;;;3.80;2.30;;;;;;;4.55;82.96;95304.09;5039362;28;20060;-69
2021/05/09 02:15:49;;;;;;;6.32;2.53;;;;;;;4.56;82.54;95304.91;5037124;28;20045;-68
2021/05/09 02:18:14;;;;;;;4.38;2.45;;;;;;;4.48;83.53;95313.88;5034378;28;20072;-69
2021/05/09 02:20:40;;;;;;;5.10;2.40;;;;;;;4.45;82.99;95309.13;5041342;28;20061;-69
2021/05/09 02:23:05;;;;;;;4.03;2.47;;;;;;;4.38;82.93;95305.91;5052056;28;20045;-66
2021/05/09 02:25:31;;;;;;;3.83;2.40;;;;;;;4.37;82.91;95304.31;5032460;28;20423;-66
2021/05/09 02:27:56;;;;;;;3.90;2.38;;;;;;;4.28;82.86;95299.50;5034424;28;20107;-69
2021/05/09 02:30:22;;;;;;;4.47;2.42;;;;;;;4.34;82.46;95306.38;5044229;28;20060;-69
2021/05/09 02:32:48;;;;;;;3.63;2.40;;;;;;;4.23;83.23;95306.44;5047831;28;20041;-68
2021/05/09 02:35:13;;;;;;;3.40;2.30;;;;;;;4.26;83.41;95301.53;5048317;28;20041;-68
2021/05/09 02:37:39;;;;;;;3.70;2.47;;;;;;;4.26;82.63;95304.13;5049672;28;20048;-69
2021/05/09 02:40:06;;;;;;;3.55;2.25;;;;;;;4.24;83.91;95306.19;5034656;28;20064;-69
2021/05/09 02:42:32;;;;;;;3.33;2.28;;;;;;;4.18;82.76;95301.94;5033340;28;20037;-69
2021/05/09 02:44:57;;;;;;;5.50;2.30;;;;;;;4.15;84.05;95310.19;5047043;28;20067;-69
2021/05/09 02:47:29;;;;;;;3.22;2.20;;;;;;;4.12;83.54;95306.25;5048510;28;20104;-68
2021/05/09 02:49:59;;;;;;;4.22;2.25;;;;;;;4.07;83.52;95297.56;5047824;28;20045;-69
2021/05/09 02:52:25;;;;;;;3.40;2.10;;;;;;;3.97;83.68;95301.53;5053610;28;20103;-69
2021/05/09 02:54:51;;;;;;;3.78;2.10;;;;;;;4.03;83.71;95296.44;5047837;28;20053;-69
2021/05/09 02:57:17;;;;;;;2.70;1.85;;;;;;;3.96;84.38;95302.56;5053474;28;20048;-69
2021/05/09 02:59:43;;;;;;;4.47;2.00;;;;;;;3.92;83.97;95296.25;5049355;28;20033;-68
2021/05/09 03:02:09;;;;;;;4.55;2.25;;;;;;;3.93;84.27;95299.63;5036486;28;20111;-69
2021/05/09 03:04:34;;;;;;;3.55;2.10;;;;;;;3.95;84.00;95305.38;5046399;28;20120;-68
2021/05/09 03:07:00;;;;;;;4.88;2.20;;;;;;;3.98;84.13;95300.53;5045823;28;20512;-69
2021/05/09 03:09:25;;;;;;;2.88;1.92;;;;;;;3.94;84.46;95299.41;5035753;28;20050;-69
2021/05/09 03:11:51;;;;;;;4.70;2.30;;;;;;;3.96;84.01;95301.78;5043166;28;20453;-69
2021/05/09 03:14:17;;;;;;;4.20;2.20;;;;;;;3.93;84.95;95297.81;5041781;28;20068;-69
2021/05/09 03:16:43;;;;;;;2.83;2.05;;;;;;;3.92;84.85;95295.44;5040115;28;20682;-69
2021/05/09 03:19:08;;;;;;;2.95;2.05;;;;;;;3.88;84.32;95295.13;5052125;28;20045;-68
2021/05/09 03:21:34;;;;;;;3.28;1.92;;;;;;;3.93;84.37;95297.81;5051522;28;20045;-69
2021/05/09 03:24:00;;;;;;;3.25;2.00;;;;;;;3.95;85.03;95294.97;5044694;28;20044;-68
2021/05/09 03:26:26;;;;;;;4.07;2.20;;;;;;;4.04;84.48;95298.00;5035004;28;20049;-68
2021/05/09 03:28:51;;;;;;;4.90;2.10;;;;;;;4.07;84.40;95297.56;5051854;28;20071;-68
2021/05/09 03:31:17;;;;;;;4.30;1.83;;;;;;;4.03;84.39;95297.22;5047323;28;20045;-69
2021/05/09 03:33:42;;;;;;;4.32;2.05;;;;;;;4.01;84.58;95288.06;5040210;28;20060;-68
2021/05/09 03:36:08;;;;;;;2.72;1.90;;;;;;;3.96;84.88;95280.94;5030863;28;20495;-69
2021/05/09 03:38:33;;;;;;;3.80;1.90;;;;;;;3.95;84.46;95295.78;5031102;28;20115;-69
2021/05/09 03:40:59;;;;;;;2.90;1.85;;;;;;;3.93;85.19;95289.22;5032292;28;20446;-69
2021/05/09 03:43:25;;;;;;;3.28;1.67;;;;;;;3.90;84.98;95298.28;5035623;28;20084;-69
2021/05/09 03:45:50;;;;;;;3.15;2.00;;;;;;;3.91;85.09;95289.47;5031893;28;20038;-68
2021/05/09 03:48:16;;;;;;;3.20;1.92;;;;;;;3.88;84.72;95292.53;5034252;28;20054;-68
2021/05/09 03:50:41;;;;;;;2.72;1.80;;;;;;;3.89;84.75;95291.47;5032283;28;20045;-69
2021/05/09 03:53:07;;;;;;;2.58;1.70;;;;;;;3.89;84.37;95296.69;5044909;28;20491;-69
2021/05/09 03:55:32;;;;;;;2.58;1.88;;;;;;;3.90;84.88;95287.88;5040407;28;20041;-68
2021/05/09 03:57:58;;;;;;;2.45;1.70;;;;;;;3.92;85.17;95295.44;5048524;28;20048;-69
2021/05/09 04:00:24;;;;;;;3.20;1.83;;;;;;;3.90;85.34;95293.06;5041977;28;20037;-68
2021/05/09 04:02:49;;;;;;;3.65;2.10;;;;;;;3.88;85.19;95295.13;5040599;28;20045;-69
2021/05/09 04:05:15;;;;;;;2.67;1.88;;;;;;;3.89;85.32;95294.09;5033941;28;20084;-68
2021/05/09 04:07:41;;;;;;;2.30;1.80;;;;;;;3.93;85.01;95297.03;5034933;28;20044;-69
2021/05/09 04:10:07;;;;;;;3.83;2.10;;;;;;;3.94;84.94;95293.41;5037053;28;20048;-68
2021/05/09 04:12:32;;;;;;;2.88;1.85;;;;;;;3.97;85.06;95293.72;5033103;28;20045;-69
2021/05/09 04:14:58;;;;;;;2.40;1.80;;;;;;;3.97;84.59;95293.72;5034392;28;20048;-69
2021/05/09 04:17:23;;;;;;;2.97;1.88;;;;;;;4.02;84.11;95289.63;5037512;28;20045;-69
2021/05/09 04:19:49;;;;;;;3.03;1.90;;;;;;;4.05;84.57;95289.16;5044665;28;20038;-69
2021/05/09 04:22:15;;;;;;;3.13;1.88;;;;;;;4.08;84.52;95293.91;5048618;28;20051;-68
2021/05/09 04:24:40;;;;;;;2.83;1.95;;;;;;;4.13;83.81;95297.41;5031728;28;20053;-69
2021/05/09 04:27:06;;;;;;;2.22;1.60;;;;;;;4.13;84.23;95291.41;5031225;28;20522;-69
2021/05/09 04:29:32;;;;;;;3.28;1.92;;;;;;;4.17;84.00;95287.31;5035327;28;20107;-69
2021/05/09 04:31:57;;;;;;;2.35;1.70;;;;;;;4.20;84.67;95286.84;5038223;28;20126;-68
2021/05/09 04:34:23;;;;;;;3.53;1.95;;;;;;;4.25;84.22;95289.56;5032566;28;20049;-69
2021/05/09 04:36:48;;;;;;;2.55;1.90;;;;;;;4.37;84.73;95286.06;5049800;28;20410;-69
2021/05/09 04:39:14;;;;;;;3.72;1.90;;;;;;;4.48;84.58;95282.59;5045845;28;20045;-69
2021/05/09 04:41:40;;;;;;;4.65;1.88;;;;;;;4.52;84.76;95288.94;5048081;28;20040;-69
2021/05/09 04:44:05;;;;;;;3.25;1.90;;;;;;;4.60;84.70;95285.16;5041435;28;20494;-69
2021/05/09 04:46:31;;;;;;;4.60;2.30;;;;;;;4.77;84.28;95285.13;5035147;28;20037;-69
2021/05/09 04:48:57;;;;;;;2.80;1.73;;;;;;;4.92;83.82;95277.56;5045868;28;20037;-69
2021/05/09 04:51:22;;;;;;;2.97;2.00;;;;;;;5.09;83.12;95271.53;5032293;28;20465;-68
2021/05/09 04:53:48;;;;;;;4.68;2.03;;;;;;;5.22;83.07;95276.41;5031277;28;20045;-69
2021/05/09 04:56:17;;;;;;;2.78;1.80;;;;;;;5.23;82.80;95282.41;5034421;28;20053;-69
2021/05/09 04:58:42;;;;;;;3.28;1.80;;;;;;;5.27;83.70;95276.47;5046767;28;20044;-69
2021/05/09 05:01:09;;;;;;;4.72;1.83;;;;;;;5.27;84.08;95279.09;5046282;28;20281;-69
2021/05/09 05:03:36;;;;;;;9.07;1.90;;;;;;;5.31;84.36;95274.94;5041085;28;20041;-69
2021/05/09 05:06:02;;;;;;;2.97;1.80;;;;;;;5.37;84.31;95284.44;5049613;28;20396;-69
2021/05/09 05:08:29;;;;;;;3.35;1.90;;;;;;;5.45;84.77;95264.19;5038339;28;20625;-69
2021/05/09 05:10:55;;;;;;;2.28;1.60;;;;;;;5.51;85.14;95268.41;5034166;28;20045;-69
2021/05/09 05:13:27;;;;;;;2.45;1.83;;;;;;;5.62;84.94;95275.34;5048479;28;20041;-69
2021/05/09 05:15:54;;;;;;;2.55;1.70;;;;;;;5.66;84.66;95271.22;5040429;28;20115;-69
2021/05/09 05:18:21;;;;;;;2.05;1.55;;;;;;;5.78;85.60;95272.91;5038481;28;20470;-69
2021/05/09 05:20:48;;;;;;;3.55;1.70;;;;;;;5.90;85.44;95270.94;5043288;28;20044;-69
2021/05/09 05:23:15;;;;;;;2.65;1.90;;;;;;;6.10;84.93;95275.63;5047265;28;20045;-69
2021/05/09 05:25:41;;;;;;;3.58;1.58;;;;;;;6.63;80.22;95278.44;5030759;28;20038;-69
2021/05/09 05:28:06;;;;;;;2.38;1.67;;;;;;;6.81;82.75;95274.66;5030465;28;20127;-69
2021/05/09 05:30:33;;;;;;;3.03;1.50;;;;;;;6.86;81.97;95276.53;5031738;28;20490;-69
2021/05/09 05:32:58;;;;;;;3.15;1.70;;;;;;;6.89;83.06;95270.78;5042100;28;20045;-69
2021/05/09 05:35:25;;;;;;;2.00;1.45;;;;;;;7.01;79.09;95262.75;5044948;28;20441;-69
2021/05/09 05:37:52;;;;;;;2.25;1.70;;;;;;;7.21;82.08;95262.06;5044891;28;20041;-69
2021/05/09 05:40:18;;;;;;;2.53;1.27;;;;;;;7.69;75.13;95262.81;5040570;28;20072;-68
2021/05/09 05:42:44;;;;;;;2.05;1.60;;;;;;;7.91;76.21;95265.25;5039982;28;20088;-69
2021/05/09 05:45:10;;;;;;;3.00;1.45;;;;;;;8.00;77.45;95256.88;5049648;28;20068;-68
2021/05/09 05:47:35;;;;;;;2.17;1.50;;;;;;;8.03;77.91;95257.16;5042359;28;20075;-69
2021/05/09 05:50:02;;;;;;;2.20;1.27;;;;;;;8.11;77.03;95256.66;5038710;28;20052;-69
2021/05/09 05:52:27;;;;;;;1.58;1.23;;;;;;;8.18;76.44;95253.00;5040772;28;20045;-69
2021/05/09 05:54:53;;;;;;;3.28;1.65;;;;;;;8.70;73.95;95249.38;5052416;28;20052;-69
2021/05/09 05:57:19;;;;;;;1.50;1.10;;;;;;;9.40;66.36;95240.06;5054741;28;20056;-69
2021/05/09 05:59:45;;;;;;;1.30;1.13;;;;;;;9.76;67.23;95248.59;5047855;28;20045;-68
2021/05/09 06:02:11;;;;;;;1.52;1.08;;;;;;;10.39;63.34;95247.22;5040296;28;20064;-68
2021/05/09 06:04:39;;;;;;;2.40;1.02;;;;;;;10.83;63.04;95243.72;5038599;28;20507;-68
2021/05/09 06:07:06;;;;;;;2.75;1.08;;;;;;;11.40;57.90;95245.78;5034303;28;20113;-69
2021/05/09 06:09:32;;;;;;;1.10;0.95;;;;;;;11.64;58.42;95243.13;5036916;28;20406;-68
2021/05/09 06:11:57;;;;;;;1.65;1.23;;;;;;;11.89;57.09;95247.28;5048365;28;20038;-69
2021/05/09 06:14:23;;;;;;;1.42;1.05;;;;;;;12.16;56.75;95248.56;5048757;28;20065;-69
2021/05/09 06:16:49;;;;;;;1.13;1.00;;;;;;;12.29;55.45;95239.91;5045963;28;20109;-69
2021/05/09 06:19:14;;;;;;;1.73;1.10;;;;;;;12.57;53.82;95244.53;5036634;28;20048;-69
2021/05/09 06:21:40;;;;;;;1.95;1.20;;;;;;;12.65;53.94;95242.00;5047170;28;20041;-69
2021/05/09 06:24:06;;;;;;;1.27;1.17;;;;;;;13.02;53.27;95244.84;5050663;28;20132;-69
2021/05/09 06:26:31;;;;;;;1.40;1.20;;;;;;;13.17;53.21;95238.50;5033576;28;20411;-69
2021/05/09 06:28:57;;;;;;;1.73;1.20;;;;;;;13.49;50.88;95228.97;5034209;28;20088;-69
2021/05/09 06:31:22;;;;;;;0.98;0.98;;;;;;;13.68;51.63;95234.91;5042107;28;20079;-69
2021/05/09 06:33:48;;;;;;;1.58;1.13;;;;;;;13.56;52.93;95232.00;5050441;28;20048;-69
2021/05/09 06:36:13;;;;;;;0.90;0.90;;;;;;;13.40;53.74;95234.13;5048769;28;20507;-66
2021/05/09 06:38:40;;;;;;;1.23;1.05;;;;;;;13.39;54.97;95234.44;5046789;28;20127;-69
2021/05/09 06:41:05;;;;;;;1.38;1.27;;;;;;;13.09;56.57;95241.84;5043867;28;20057;-69
2021/05/09 06:43:31;;;;;;;1.13;1.02;;;;;;;13.22;55.04;95227.06;5044222;28;20056;-69
2021/05/09 06:45:57;;;;;;;1.67;1.17;;;;;;;13.40;54.91;95233.38;5032873;28;20050;-69
2021/05/09 06:48:24;;;;;;;1.33;1.23;;;;;;;13.72;52.75;95239.63;5042166;28;20048;-69
2021/05/09 06:50:49;;;;;;;1.20;1.13;;;;;;;13.57;55.74;95235.44;5044107;28;20041;-69
2021/05/09 06:53:15;;;;;;;2.10;1.30;;;;;;;13.63;54.75;95232.38;5051555;28;20041;-69
2021/05/09 06:55:43;;;;;;;1.58;1.10;;;;;;;14.08;52.62;95225.63;5050425;28;20560;-69
2021/05/09 06:58:10;;;;;;;2.78;1.20;;;;;;;13.93;53.62;95240.75;5047235;28;20090;-69
2021/05/09 07:00:35;;;;;;;2.28;1.23;;;;;;;14.09;52.39;95227.97;5051872;28;20049;-69
2021/05/09 07:03:01;;;;;;;1.80;1.20;;;;;;;14.08;54.41;95230.94;5041524;28;20529;-70
2021/05/09 07:05:27;;;;;;;1.33;1.23;;;;;;;14.01;54.48;95231.34;5047671;28;20037;-67
2021/05/09 07:07:55;;;;;;;1.83;1.20;;;;;;;13.73;57.48;95235.91;5033220;28;20038;-70
2021/05/09 07:10:22;;;;;;;1.85;1.10;;;;;;;13.95;55.32;95233.31;5034665;28;20580;-70
2021/05/09 07:12:48;;;;;;;1.75;1.08;;;;;;;14.57;50.87;95224.00;5049285;28;20534;-68
2021/05/09 07:15:20;;;;;;;1.30;1.20;;;;;;;15.12;49.45;95214.97;5048472;28;20046;-69
2021/05/09 07:17:53;;;;;;;2.50;1.20;;;;;;;15.34;49.79;95232.72;5034780;28;20542;-69
2021/05/09 07:20:19;;;;;;;1.20;1.10;;;;;;;15.35;50.03;95234.25;5031449;28;20042;-69
2021/05/09 07:22:52;;;;;;;1.25;1.13;;;;;;;15.76;47.46;95222.53;5038381;28;20052;-70
2021/05/09 07:25:18;;;;;;;1.40;1.30;;;;;;;16.19;46.01;95217.59;5039047;28;20410;-70
2021/05/09 07:27:43;;;;;;;1.15;1.05;;;;;;;16.42;46.57;95227.00;5040201;28;20034;-70
2021/05/09 07:30:10;;;;;;;1.52;1.27;;;;;;;16.55;44.59;95230.56;5032276;28;20041;-70
2021/05/09 07:32:35;;;;;;;1.25;1.00;;;;;;;16.54;47.38;95225.56;5035608;28;20116;-70
2021/05/09 07:35:01;;;;;;;1.42;1.20;;;;;;;16.90;43.37;95224.44;5040742;28;20076;-70
2021/05/09 07:37:26;;;;;;;2.03;1.50;;;;;;;17.18;42.80;95224.81;5035510;28;20041;-69
2021/05/09 07:39:52;;;;;;;1.77;1.30;;;;;;;17.19;42.21;95217.66;5036227;28;20057;-70
2021/05/09 07:42:17;;;;;;;2.75;1.23;;;;;;;17.12;44.59;95218.94;5040580;28;20040;-71
2021/05/09 07:44:43;;;;;;;1.73;1.20;;;;;;;17.38;43.52;95223.34;5045496;28;20040;-71
2021/05/09 07:47:08;;;;;;;1.30;1.20;;;;;;;17.77;41.39;95223.31;5041356;28;20112;-71
2021/05/09 07:49:34;;;;;;;3.10;1.25;;;;;;;18.01;40.35;95217.41;5041954;28;20552;-70
2021/05/09 07:51:59;;;;;;;1.40;1.30;;;;;;;18.11;40.93;95209.03;5048740;28;20461;-70
2021/05/09 07:54:25;;;;;;;1.60;1.30;;;;;;;18.18;39.56;95206.63;5048293;28;20052;-70
2021/05/09 07:56:51;;;;;;;3.20;1.33;;;;;;;18.38;38.91;95214.94;5036794;28;20049;-71
2021/05/09 07:59:16;;;;;;;1.52;1.15;;;;;;;18.57;38.28;95205.69;5046422;28;20041;-71
2021/05/09 08:01:42;;;;;;;1.52;1.30;;;;;;;18.22;41.32;95206.75;5037377;28;20518;-70
2021/05/09 08:04:07;;;;;;;1.25;1.15;;;;;;;18.18;42.50;95209.28;5033725;28;20191;-71
2021/05/09 08:06:33;;;;;;;1.83;1.35;;;;;;;18.61;39.46;95198.59;5038190;28;20038;-71
2021/05/09 08:08:58;;;;;;;1.48;1.20;;;;;;;18.85;38.86;95205.91;5031451;28;20592;-70
2021/05/09 08:11:24;;;;;;;2.22;1.30;;;;;;;19.09;38.89;95193.75;5031408;28;20041;-70
2021/05/09 08:13:49;;;;;;;1.42;1.30;;;;;;;19.19;39.36;95198.63;5039247;28;20040;-70
2021/05/09 08:16:15;;;;;;;1.77;1.40;;;;;;;19.14;39.52;95199.63;5035785;28;20049;-70
2021/05/09 08:18:40;;;;;;;1.27;1.17;;;;;;;19.38;37.86;95196.22;5038665;28;20426;-71
2021/05/09 08:21:06;;;;;;;1.33;1.23;;;;;;;19.47;38.12;95196.09;5033937;28;20042;-70
2021/05/09 08:23:34;;;;;;;1.65;1.17;;;;;;;19.66;37.38;95194.75;5047085;28;20459;-71
2021/05/09 08:26:00;;;;;;;1.15;1.13;;;;;;;19.85;36.54;95191.53;5049544;28;20113;-70
2021/05/09 08:28:25;;;;;;;1.30;1.20;;;;;;;19.96;36.43;95192.63;5049980;28;20045;-70
2021/05/09 08:30:51;;;;;;;1.40;1.30;;;;;;;19.91;37.36;95187.50;5049781;28;20049;-70
2021/05/09 08:33:17;;;;;;;1.42;1.33;;;;;;;19.54;40.83;95188.31;5046239;28;20117;-70
2021/05/09 08:35:42;;;;;;;2.17;1.20;;;;;;;19.28;40.83;95185.19;5046234;28;20495;-69
2021/05/09 08:38:08;;;;;;;1.52;1.30;;;;;;;19.64;39.60;95191.63;5041887;28;20049;-70
2021/05/09 08:40:34;;;;;;;1.20;1.10;;;;;;;20.03;38.04;95181.38;5048419;28;20625;-70
2021/05/09 08:43:00;;;;;;;1.35;1.25;;;;;;;20.04;38.48;95177.56;5049939;28;20044;-69
2021/05/09 08:45:26;;;;;;;1.95;1.30;;;;;;;20.02;40.33;95185.16;5047578;28;20414;-70
2021/05/09 08:47:54;;;;;;;1.40;1.30;;;;;;;19.45;43.08;95182.31;5039147;28;20514;-69
2021/05/09 08:50:24;;;;;;;3.03;1.33;;;;;;;19.31;43.46;95179.19;5035459;28;20507;-69
2021/05/09 08:52:51;;;;;;;1.35;1.25;;;;;;;19.90;38.50;95175.28;5034193;28;20065;-69
2021/05/09 08:55:21;;;;;;;1.48;1.30;;;;;;;20.20;38.54;95170.41;5049715;28;20079;-69
2021/05/09 08:57:47;;;;;;;1.88;1.70;;;;;;;20.44;39.37;95174.09;5038910;28;20499;-69
2021/05/09 09:00:15;;;;;;;1.50;1.40;;;;;;;20.37;40.01;95168.56;5049083;28;20037;-69
2021/05/09 09:02:43;;;;;;;2.67;1.40;;;;;;;20.13;41.90;95164.88;5046189;28;20041;-69
2021/05/09 09:05:09;;;;;;;1.58;1.48;;;;;;;20.62;39.45;95165.81;5031744;28;20470;-69
2021/05/09 09:07:45;;;;;;;2.45;1.40;;;;;;;20.93;38.07;95163.19;5036631;28;20045;-70
2021/05/09 09:10:27;;;;;;;2.70;1.60;;;;;;;21.32;37.34;95162.59;5036113;28;20124;-70
2021/05/09 09:12:53;;;;;;;2.22;1.50;;;;;;;21.66;34.05;95164.91;5044726;28;20041;-70
2021/05/09 09:15:19;;;;;;;1.58;1.20;;;;;;;21.71;34.59;95151.25;5050766;28;20082;-69
2021/05/09 09:17:45;;;;;;;3.33;1.35;;;;;;;21.82;32.78;95152.22;5041176;28;20045;-69
2021/05/09 09:20:13;;;;;;;2.55;1.50;;;;;;;21.55;34.84;95144.03;5044738;28;20115;-69
2021/05/09 09:22:50;;;;;;;1.67;1.40;;;;;;;21.93;31.85;95139.84;5038575;28;20123;-69
2021/05/09 09:25:17;;;;;;;2.50;1.50;;;;;;;22.08;31.75;95137.44;5040922;28;20280;-69
2021/05/09 09:27:44;;;;;;;1.75;1.55;;;;;;;21.32;36.31;95140.38;5037949;28;20053;-69
2021/05/09 09:30:10;;;;;;;1.98;1.50;;;;;;;21.51;34.18;95148.50;5043145;28;20613;-68
2021/05/09 09:32:37;;;;;;;3.22;1.40;;;;;;;21.66;34.98;95132.78;5040940;28;20041;-68
2021/05/09 09:35:02;;;;;;;1.60;1.40;;;;;;;21.84;33.65;95128.56;5035892;28;20525;-69
2021/05/09 09:37:34;;;;;;;1.42;1.33;;;;;;;22.19;33.23;95127.72;5044761;28;20126;-68
2021/05/09 09:40:02;;;;;;;3.53;1.50;;;;;;;22.39;29.77;95128.50;5045259;28;20037;-68
2021/05/09 09:42:38;;;;;;;2.10;1.40;;;;;;;21.87;32.70;95125.19;5043945;28;20045;-68
2021/05/09 09:45:28;;;;;;;1.52;1.30;;;;;;;22.10;29.24;95116.47;5042515;28;20477;-68
2021/05/09 09:47:54;;;;;;;2.33;1.40;;;;;;;22.09;28.95;95117.56;5045242;28;20403;-68
2021/05/09 09:50:40;;;;;;;1.50;1.38;;;;;;;21.76;31.01;95116.91;5045109;28;20095;-68
2021/05/09 09:53:38;;;;;;;1.40;1.30;;;;;;;22.25;27.62;95104.88;5036820;28;20038;-68
2021/05/09 09:56:04;;;;;;;1.40;1.30;;;;;;;22.21;28.61;95112.09;5041983;28;20079;-70
2021/05/09 09:58:58;;;;;;;1.98;1.40;;;;;;;22.41;28.18;95106.72;5037396;28;20041;-70
2021/05/09 10:01:35;;;;;;;1.50;1.40;;;;;;;23.14;25.03;95109.50;5030525;28;20046;-69
2021/05/09 10:04:03;;;;;;;1.40;1.30;;;;;;;23.42;23.68;95113.72;5036208;28;20037;-70
2021/05/09 10:06:30;;;;;;;2.10;1.42;;;;;;;23.66;23.87;95102.59;5035606;28;20060;-70
2021/05/09 10:08:57;;;;;;;1.83;1.50;;;;;;;23.96;24.29;95103.75;5046210;28;20099;-70
2021/05/09 10:11:25;;;;;;;1.75;1.30;;;;;;;24.17;23.30;95108.59;5041439;28;20542;-70
2021/05/09 10:13:52;;;;;;;1.50;1.30;;;;;;;24.55;20.24;95101.28;5038910;28;20045;-70
2021/05/09 10:16:29;;;;;;;3.55;1.30;;;;;;;24.67;23.02;95098.38;5049151;28;20083;-70
2021/05/09 10:19:06;;;;;;;2.33;1.20;;;;;;;24.86;23.16;95093.94;5030657;28;20099;-70
2021/05/09 10:21:35;;;;;;;1.33;1.23;;;;;;;25.12;23.61;95100.28;5031265;28;20045;-70
2021/05/09 10:24:22;;;;;;;1.58;1.45;;;;;;;25.50;21.27;95098.25;5037641;28;20045;-69
2021/05/09 10:26:53;;;;;;;2.05;1.50;;;;;;;26.52;20.98;95092.13;5044569;28;20042;-69
2021/05/09 10:29:45;;;;;;;1.50;1.40;;;;;;;27.57;21.05;95084.81;5039102;28;20052;-70
2021/05/09 10:32:20;;;;;;;2.75;1.67;;;;;;;28.29;21.11;95090.00;5041813;28;20061;-70
2021/05/09 10:34:51;;;;;;;5.68;1.60;;;;;;;28.85;18.97;95093.53;5045391;28;20048;-70
2021/05/09 10:37:39;;;;;;;2.15;1.70;;;;;;;29.14;17.13;95087.88;5043071;28;20087;-70
2021/05/09 10:40:33;;;;;;;2.28;1.60;;;;;;;29.47;16.76;95085.66;5034060;28;20104;-70
2021/05/09 10:43:02;;;;;;;1.70;1.60;;;;;;;29.12;18.60;95084.81;5031952;28;20049;-70
2021/05/09 10:45:38;;;;;;;1.73;1.60;;;;;;;29.14;17.79;95079.75;5036465;28;20180;-70
2021/05/09 10:48:13;;;;;;;1.70;1.60;;;;;;;29.42;15.46;95075.25;5038883;28;20045;-71
2021/05/09 10:50:39;;;;;;;2.00;1.50;;;;;;;29.19;16.28;95073.91;5033626;28;20049;-70
2021/05/09 10:53:04;;;;;;;1.80;1.70;;;;;;;29.47;16.48;95077.53;5034326;28;20384;-71
2021/05/09 10:55:36;;;;;;;1.90;1.70;;;;;;;30.66;15.04;95070.69;5042964;28;20041;-71
2021/05/09 10:58:03;;;;;;;1.67;1.55;;;;;;;30.78;14.52;95061.19;5050752;28;20411;-70
2021/05/09 11:00:55;;;;;;;1.50;1.40;;;;;;;30.98;15.81;95063.22;5039299;28;20054;-70
2021/05/09 11:03:39;;;;;;;2.80;1.80;;;;;;;30.97;14.66;95056.25;5033168;28;20095;-70
2021/05/09 11:06:11;;;;;;;1.70;1.60;;;;;;;30.77;14.91;95051.50;5031417;28;20068;-70
2021/05/09 11:08:43;;;;;;;2.38;1.80;;;;;;;31.17;15.93;95054.38;5043512;28;20055;-71
2021/05/09 11:11:13;;;;;;;2.03;1.50;;;;;;;31.73;14.86;95039.41;5052295;28;20123;-70
2021/05/09 11:14:08;;;;;;;2.15;1.80;;;;;;;32.02;14.63;95038.81;5052502;28;20072;-71
2021/05/09 11:16:34;;;;;;;3.03;1.70;;;;;;;32.09;14.62;95050.31;5039331;28;20196;-70
2021/05/09 11:19:03;;;;;;;2.92;1.88;;;;;;;32.44;13.98;95031.69;5050449;28;20041;-70
2021/05/09 11:21:45;;;;;;;2.40;1.80;;;;;;;33.30;13.90;95023.44;5052034;28;20113;-71
2021/05/09 11:24:19;;;;;;;2.65;2.00;;;;;;;32.58;15.86;95025.13;5040943;28;20054;-71
2021/05/09 11:26:53;;;;;;;4.43;1.90;;;;;;;33.15;16.19;95024.97;5035070;28;20112;-70
2021/05/09 11:29:20;;;;;;;1.92;1.80;;;;;;;31.95;15.81;95021.47;5032908;28;20049;-70
2021/05/09 11:31:48;;;;;;;1.90;1.80;;;;;;;31.80;16.07;95020.22;5032667;28;20037;-71
2021/05/09 11:34:15;;;;;;;2.00;1.80;;;;;;;31.67;14.70;95020.09;5032492;28;20041;-70
2021/05/09 11:36:43;;;;;;;3.45;1.90;;;;;;;31.84;15.83;95012.75;5044751;28;20045;-70
2021/05/09 11:39:12;;;;;;;2.90;1.92;;;;;;;31.83;16.34;95000.31;5037195;28;20072;-70